sensor_id;sensor_type;location;lat;lon;timestamp;temperature;humidity
66057;DHT22;52842;52.666;5.202;2023-03-12T00:01:08;14.80;58.50
66057;DHT22;52842;52.666;5.202;2023-03-12T00:03:35;14.80;58.50
66057;DHT22;52842;52.666;5.202;2023-03-12T00:06:01;14.80;58.50
66057;DHT22;52842;52.666;5.202;2023-03-12T00:08:28;14.70;58.50
66057;DHT22;52842;52.666;5.202;2023-03-12T00:10:55;14.70;58.50
66057;DHT22;52842;52.666;5.202;2023-03-12T00:13:23;14.70;58.50
66057;DHT22;52842;52.666;5.202;2023-03-12T00:15:49;14.70;58.60
66057;DHT22;52842;52.666;5.202;2023-03-12T00:18:16;14.60;58.60
66057;DHT22;52842;52.666;5.202;2023-03-12T00:20:43;14.60;58.60
66057;DHT22;52842;52.666;5.202;2023-03-12T00:23:17;14.60;58.60
66057;DHT22;52842;52.666;5.202;2023-03-12T00:25:44;14.60;58.60
66057;DHT22;52842;52.666;5.202;2023-03-12T00:28:11;14.50;58.60
66057;DHT22;52842;52.666;5.202;2023-03-12T00:30:39;14.50;58.60
66057;DHT22;52842;52.666;5.202;2023-03-12T00:33:06;14.50;58.60
66057;DHT22;52842;52.666;5.202;2023-03-12T00:35:33;14.50;58.70
66057;DHT22;52842;52.666;5.202;2023-03-12T00:38:00;14.50;58.60
66057;DHT22;52842;52.666;5.202;2023-03-12T00:40:27;14.40;59.20
66057;DHT22;52842;52.666;5.202;2023-03-12T00:42:53;14.40;58.70
66057;DHT22;52842;52.666;5.202;2023-03-12T00:45:20;14.40;58.70
66057;DHT22;52842;52.666;5.202;2023-03-12T00:47:48;14.40;58.70
66057;DHT22;52842;52.666;5.202;2023-03-12T00:50:15;14.30;58.70
66057;DHT22;52842;52.666;5.202;2023-03-12T00:52:41;14.30;58.70
66057;DHT22;52842;52.666;5.202;2023-03-12T00:55:08;14.30;58.80
66057;DHT22;52842;52.666;5.202;2023-03-12T00:57:35;14.30;58.80
66057;DHT22;52842;52.666;5.202;2023-03-12T01:00:02;14.30;58.80
66057;DHT22;52842;52.666;5.202;2023-03-12T01:02:31;14.30;58.90
66057;DHT22;52842;52.666;5.202;2023-03-12T01:04:59;14.30;58.80
66057;DHT22;52842;52.666;5.202;2023-03-12T01:07:26;14.30;58.80
66057;DHT22;52842;52.666;5.202;2023-03-12T01:09:52;14.30;58.80
66057;DHT22;52842;52.666;5.202;2023-03-12T01:12:19;14.40;58.70
66057;DHT22;52842;52.666;5.202;2023-03-12T01:14:46;14.40;58.60
66057;DHT22;52842;52.666;5.202;2023-03-12T01:17:12;14.40;58.60
66057;DHT22;52842;52.666;5.202;2023-03-12T01:19:39;14.40;58.50
66057;DHT22;52842;52.666;5.202;2023-03-12T01:22:07;14.50;58.40
66057;DHT22;52842;52.666;5.202;2023-03-12T01:24:34;14.50;58.40
66057;DHT22;52842;52.666;5.202;2023-03-12T01:27:00;14.50;58.30
66057;DHT22;52842;52.666;5.202;2023-03-12T01:29:27;14.60;58.20
66057;DHT22;52842;52.666;5.202;2023-03-12T01:31:54;14.60;58.20
66057;DHT22;52842;52.666;5.202;2023-03-12T01:34:21;14.60;58.00
66057;DHT22;52842;52.666;5.202;2023-03-12T01:36:47;14.70;58.00
66057;DHT22;52842;52.666;5.202;2023-03-12T01:39:15;14.70;57.90
66057;DHT22;52842;52.666;5.202;2023-03-12T01:41:42;14.70;57.90
66057;DHT22;52842;52.666;5.202;2023-03-12T01:44:10;14.70;57.70
66057;DHT22;52842;52.666;5.202;2023-03-12T01:46:39;14.70;57.60
66057;DHT22;52842;52.666;5.202;2023-03-12T01:49:08;14.70;57.60
66057;DHT22;52842;52.666;5.202;2023-03-12T01:51:36;14.70;57.50
66057;DHT22;52842;52.666;5.202;2023-03-12T01:54:05;14.70;57.50
66057;DHT22;52842;52.666;5.202;2023-03-12T01:56:34;14.70;57.40
66057;DHT22;52842;52.666;5.202;2023-03-12T01:59:02;14.70;57.40
66057;DHT22;52842;52.666;5.202;2023-03-12T02:01:29;14.70;57.40
66057;DHT22;52842;52.666;5.202;2023-03-12T02:03:56;14.70;57.40
66057;DHT22;52842;52.666;5.202;2023-03-12T02:06:27;14.70;57.40
66057;DHT22;52842;52.666;5.202;2023-03-12T02:08:54;14.70;57.40
66057;DHT22;52842;52.666;5.202;2023-03-12T02:11:24;14.70;57.40
66057;DHT22;52842;52.666;5.202;2023-03-12T02:13:52;14.60;57.40
66057;DHT22;52842;52.666;5.202;2023-03-12T02:16:18;14.60;57.40
66057;DHT22;52842;52.666;5.202;2023-03-12T02:18:46;14.60;57.40
66057;DHT22;52842;52.666;5.202;2023-03-12T02:21:14;14.60;57.40
66057;DHT22;52842;52.666;5.202;2023-03-12T02:23:44;14.50;57.40
66057;DHT22;52842;52.666;5.202;2023-03-12T02:26:14;14.50;57.40
66057;DHT22;52842;52.666;5.202;2023-03-12T02:28:42;14.50;57.40
66057;DHT22;52842;52.666;5.202;2023-03-12T02:31:11;14.50;57.50
66057;DHT22;52842;52.666;5.202;2023-03-12T02:33:38;14.50;57.50
66057;DHT22;52842;52.666;5.202;2023-03-12T02:36:05;14.40;57.50
66057;DHT22;52842;52.666;5.202;2023-03-12T02:38:38;14.40;58.10
66057;DHT22;52842;52.666;5.202;2023-03-12T02:41:09;14.40;57.50
66057;DHT22;52842;52.666;5.202;2023-03-12T02:43:37;14.40;57.60
66057;DHT22;52842;52.666;5.202;2023-03-12T02:46:05;14.40;57.50
66057;DHT22;52842;52.666;5.202;2023-03-12T02:48:32;14.40;57.50
66057;DHT22;52842;52.666;5.202;2023-03-12T02:50:58;14.40;57.50
66057;DHT22;52842;52.666;5.202;2023-03-12T02:53:25;14.40;57.50
66057;DHT22;52842;52.666;5.202;2023-03-12T02:55:52;14.40;57.50
66057;DHT22;52842;52.666;5.202;2023-03-12T02:58:18;14.40;57.40
66057;DHT22;52842;52.666;5.202;2023-03-12T03:00:47;14.40;57.40
66057;DHT22;52842;52.666;5.202;2023-03-12T03:03:14;14.50;57.40
66057;DHT22;52842;52.666;5.202;2023-03-12T03:05:41;14.50;57.40
66057;DHT22;52842;52.666;5.202;2023-03-12T03:08:07;14.50;57.30
66057;DHT22;52842;52.666;5.202;2023-03-12T03:10:34;14.60;57.30
66057;DHT22;52842;52.666;5.202;2023-03-12T03:13:01;14.60;57.20
66057;DHT22;52842;52.666;5.202;2023-03-12T03:15:28;14.60;57.10
66057;DHT22;52842;52.666;5.202;2023-03-12T03:17:56;14.70;57.10
66057;DHT22;52842;52.666;5.202;2023-03-12T03:20:22;14.70;57.00
66057;DHT22;52842;52.666;5.202;2023-03-12T03:22:50;14.80;56.90
66057;DHT22;52842;52.666;5.202;2023-03-12T03:25:17;14.80;56.80
66057;DHT22;52842;52.666;5.202;2023-03-12T03:27:46;14.90;56.80
66057;DHT22;52842;52.666;5.202;2023-03-12T03:30:13;14.90;56.60
66057;DHT22;52842;52.666;5.202;2023-03-12T03:32:41;15.00;56.50
66057;DHT22;52842;52.666;5.202;2023-03-12T03:35:09;15.00;56.40
66057;DHT22;52842;52.666;5.202;2023-03-12T03:37:36;15.00;56.30
66057;DHT22;52842;52.666;5.202;2023-03-12T03:40:03;15.10;56.20
66057;DHT22;52842;52.666;5.202;2023-03-12T03:42:30;15.10;56.10
66057;DHT22;52842;52.666;5.202;2023-03-12T03:44:57;15.10;56.10
66057;DHT22;52842;52.666;5.202;2023-03-12T03:47:23;15.10;56.00
66057;DHT22;52842;52.666;5.202;2023-03-12T03:49:50;15.10;56.10
66057;DHT22;52842;52.666;5.202;2023-03-12T03:52:18;15.10;56.10
66057;DHT22;52842;52.666;5.202;2023-03-12T03:54:45;15.10;56.00
66057;DHT22;52842;52.666;5.202;2023-03-12T03:57:11;15.00;55.90
66057;DHT22;52842;52.666;5.202;2023-03-12T03:59:38;15.00;55.90
66057;DHT22;52842;52.666;5.202;2023-03-12T04:02:05;15.00;55.90
66057;DHT22;52842;52.666;5.202;2023-03-12T04:04:31;15.00;55.90
66057;DHT22;52842;52.666;5.202;2023-03-12T04:06:58;15.00;55.90
66057;DHT22;52842;52.666;5.202;2023-03-12T04:09:26;14.90;55.90
66057;DHT22;52842;52.666;5.202;2023-03-12T04:11:54;14.90;55.90
66057;DHT22;52842;52.666;5.202;2023-03-12T04:14:21;14.90;55.90
66057;DHT22;52842;52.666;5.202;2023-03-12T04:16:48;14.90;55.90
66057;DHT22;52842;52.666;5.202;2023-03-12T04:19:14;14.80;55.90
66057;DHT22;52842;52.666;5.202;2023-03-12T04:21:41;14.80;55.90
66057;DHT22;52842;52.666;5.202;2023-03-12T04:24:08;14.80;56.00
66057;DHT22;52842;52.666;5.202;2023-03-12T04:26:39;14.70;56.00
66057;DHT22;52842;52.666;5.202;2023-03-12T04:29:06;14.70;56.00
66057;DHT22;52842;52.666;5.202;2023-03-12T04:31:33;14.70;56.10
66057;DHT22;52842;52.666;5.202;2023-03-12T04:34:00;14.70;56.10
66057;DHT22;52842;52.666;5.202;2023-03-12T04:36:26;14.60;56.10
66057;DHT22;52842;52.666;5.202;2023-03-12T04:38:53;14.60;56.20
66057;DHT22;52842;52.666;5.202;2023-03-12T04:41:20;14.60;56.20
66057;DHT22;52842;52.666;5.202;2023-03-12T04:43:48;14.50;56.20
66057;DHT22;52842;52.666;5.202;2023-03-12T04:46:15;14.50;56.30
66057;DHT22;52842;52.666;5.202;2023-03-12T04:48:42;14.50;56.30
66057;DHT22;52842;52.666;5.202;2023-03-12T04:51:08;14.50;56.40
66057;DHT22;52842;52.666;5.202;2023-03-12T04:53:35;14.50;56.30
66057;DHT22;52842;52.666;5.202;2023-03-12T04:56:02;14.50;56.40
66057;DHT22;52842;52.666;5.202;2023-03-12T04:58:29;14.50;56.40
66057;DHT22;52842;52.666;5.202;2023-03-12T05:00:57;14.50;56.40
66057;DHT22;52842;52.666;5.202;2023-03-12T05:03:24;14.50;56.40
66057;DHT22;52842;52.666;5.202;2023-03-12T05:05:50;14.50;56.30
66057;DHT22;52842;52.666;5.202;2023-03-12T05:08:17;14.60;56.30
66057;DHT22;52842;52.666;5.202;2023-03-12T05:10:44;14.60;56.30
66057;DHT22;52842;52.666;5.202;2023-03-12T05:13:13;14.70;56.30
66057;DHT22;52842;52.666;5.202;2023-03-12T05:15:40;14.90;56.90
66057;DHT22;52842;52.666;5.202;2023-03-12T05:18:08;15.40;56.80
66057;DHT22;52842;52.666;5.202;2023-03-12T05:20:35;16.00;54.90
66057;DHT22;52842;52.666;5.202;2023-03-12T05:23:02;16.60;53.60
66057;DHT22;52842;52.666;5.202;2023-03-12T05:25:28;17.10;52.20
66057;DHT22;52842;52.666;5.202;2023-03-12T05:27:55;17.60;51.10
66057;DHT22;52842;52.666;5.202;2023-03-12T05:30:22;17.90;50.00
66057;DHT22;52842;52.666;5.202;2023-03-12T05:32:49;18.20;49.30
66057;DHT22;52842;52.666;5.202;2023-03-12T05:35:17;18.50;48.80
66057;DHT22;52842;52.666;5.202;2023-03-12T05:37:43;18.80;48.20
66057;DHT22;52842;52.666;5.202;2023-03-12T05:40:11;19.00;47.60
66057;DHT22;52842;52.666;5.202;2023-03-12T05:42:39;19.30;47.20
66057;DHT22;52842;52.666;5.202;2023-03-12T05:45:06;19.40;46.60
66057;DHT22;52842;52.666;5.202;2023-03-12T05:47:33;19.50;46.40
66057;DHT22;52842;52.666;5.202;2023-03-12T05:50:00;19.70;46.30
66057;DHT22;52842;52.666;5.202;2023-03-12T05:52:29;19.70;46.10
66057;DHT22;52842;52.666;5.202;2023-03-12T05:54:56;19.80;45.90
66057;DHT22;52842;52.666;5.202;2023-03-12T05:57:23;19.90;45.80
66057;DHT22;52842;52.666;5.202;2023-03-12T05:59:49;19.90;45.60
66057;DHT22;52842;52.666;5.202;2023-03-12T06:02:16;19.90;45.60
66057;DHT22;52842;52.666;5.202;2023-03-12T06:04:43;20.00;45.50
66057;DHT22;52842;52.666;5.202;2023-03-12T06:07:09;20.10;45.50
66057;DHT22;52842;52.666;5.202;2023-03-12T06:09:37;20.10;45.30
66057;DHT22;52842;52.666;5.202;2023-03-12T06:12:05;20.10;45.20
66057;DHT22;52842;52.666;5.202;2023-03-12T06:14:32;20.10;45.20
66057;DHT22;52842;52.666;5.202;2023-03-12T06:17:00;20.10;45.20
66057;DHT22;52842;52.666;5.202;2023-03-12T06:19:26;20.10;45.20
66057;DHT22;52842;52.666;5.202;2023-03-12T06:21:53;20.20;45.20
66057;DHT22;52842;52.666;5.202;2023-03-12T06:24:20;20.20;45.10
66057;DHT22;52842;52.666;5.202;2023-03-12T06:26:48;20.30;45.10
66057;DHT22;52842;52.666;5.202;2023-03-12T06:29:15;20.30;45.60
66057;DHT22;52842;52.666;5.202;2023-03-12T06:31:41;20.40;44.90
66057;DHT22;52842;52.666;5.202;2023-03-12T06:34:08;20.40;44.90
66057;DHT22;52842;52.666;5.202;2023-03-12T06:36:35;20.40;44.70
66057;DHT22;52842;52.666;5.202;2023-03-12T06:39:02;20.50;44.70
66057;DHT22;52842;52.666;5.202;2023-03-12T06:41:32;20.50;44.60
66057;DHT22;52842;52.666;5.202;2023-03-12T06:44:00;20.60;44.60
66057;DHT22;52842;52.666;5.202;2023-03-12T06:46:28;20.60;44.60
66057;DHT22;52842;52.666;5.202;2023-03-12T06:48:55;20.60;44.70
66057;DHT22;52842;52.666;5.202;2023-03-12T06:51:21;20.50;44.60
66057;DHT22;52842;52.666;5.202;2023-03-12T06:53:48;20.50;44.90
66057;DHT22;52842;52.666;5.202;2023-03-12T06:56:14;20.30;45.30
66057;DHT22;52842;52.666;5.202;2023-03-12T06:58:41;20.20;45.60
66057;DHT22;52842;52.666;5.202;2023-03-12T07:01:09;20.10;45.90
66057;DHT22;52842;52.666;5.202;2023-03-12T07:03:36;19.80;46.20
66057;DHT22;52842;52.666;5.202;2023-03-12T07:06:03;19.50;47.10
66057;DHT22;52842;52.666;5.202;2023-03-12T07:08:30;19.20;48.00
66057;DHT22;52842;52.666;5.202;2023-03-12T07:10:57;18.90;49.00
66057;DHT22;52842;52.666;5.202;2023-03-12T07:13:24;18.60;49.70
66057;DHT22;52842;52.666;5.202;2023-03-12T07:15:51;18.50;50.70
66057;DHT22;52842;52.666;5.202;2023-03-12T07:18:19;18.60;50.90
66057;DHT22;52842;52.666;5.202;2023-03-12T07:20:46;18.70;50.80
66057;DHT22;52842;52.666;5.202;2023-03-12T07:23:12;18.90;50.60
66057;DHT22;52842;52.666;5.202;2023-03-12T07:25:40;19.00;50.30
66057;DHT22;52842;52.666;5.202;2023-03-12T07:28:07;19.10;50.20
66057;DHT22;52842;52.666;5.202;2023-03-12T07:30:34;19.10;50.10
66057;DHT22;52842;52.666;5.202;2023-03-12T07:33:00;19.20;49.80
66057;DHT22;52842;52.666;5.202;2023-03-12T07:35:28;19.30;49.60
66057;DHT22;52842;52.666;5.202;2023-03-12T07:37:55;19.40;49.20
66057;DHT22;52842;52.666;5.202;2023-03-12T07:40:22;19.50;48.80
66057;DHT22;52842;52.666;5.202;2023-03-12T07:42:49;19.60;48.40
66057;DHT22;52842;52.666;5.202;2023-03-12T07:45:16;19.60;48.10
66057;DHT22;52842;52.666;5.202;2023-03-12T07:47:42;19.70;48.10
66057;DHT22;52842;52.666;5.202;2023-03-12T07:50:10;19.60;48.30
66057;DHT22;52842;52.666;5.202;2023-03-12T07:52:38;19.30;48.80
66057;DHT22;52842;52.666;5.202;2023-03-12T07:55:05;18.90;49.60
66057;DHT22;52842;52.666;5.202;2023-03-12T07:57:32;18.60;50.30
66057;DHT22;52842;52.666;5.202;2023-03-12T07:59:59;18.30;51.00
66057;DHT22;52842;52.666;5.202;2023-03-12T08:02:25;18.10;51.50
66057;DHT22;52842;52.666;5.202;2023-03-12T08:04:52;17.90;52.10
66057;DHT22;52842;52.666;5.202;2023-03-12T08:07:19;17.70;52.50
66057;DHT22;52842;52.666;5.202;2023-03-12T08:09:47;17.60;53.50
66057;DHT22;52842;52.666;5.202;2023-03-12T08:12:14;17.50;53.30
66057;DHT22;52842;52.666;5.202;2023-03-12T08:14:41;17.30;53.70
66057;DHT22;52842;52.666;5.202;2023-03-12T08:17:07;17.20;53.90
66057;DHT22;52842;52.666;5.202;2023-03-12T08:19:34;17.20;54.30
66057;DHT22;52842;52.666;5.202;2023-03-12T08:22:01;17.10;54.40
66057;DHT22;52842;52.666;5.202;2023-03-12T08:24:28;17.00;54.50
66057;DHT22;52842;52.666;5.202;2023-03-12T08:26:56;16.90;54.40
66057;DHT22;52842;52.666;5.202;2023-03-12T08:29:23;16.80;54.50
66057;DHT22;52842;52.666;5.202;2023-03-12T08:31:49;16.80;54.70
66057;DHT22;52842;52.666;5.202;2023-03-12T08:34:16;16.80;55.30
66057;DHT22;52842;52.666;5.202;2023-03-12T08:36:43;16.80;55.00
66057;DHT22;52842;52.666;5.202;2023-03-12T08:39:09;17.10;54.80
66057;DHT22;52842;52.666;5.202;2023-03-12T08:41:36;17.40;54.20
66057;DHT22;52842;52.666;5.202;2023-03-12T08:44:04;17.70;53.50
66057;DHT22;52842;52.666;5.202;2023-03-12T08:46:31;18.00;52.90
66057;DHT22;52842;52.666;5.202;2023-03-12T08:48:57;18.30;52.20
66057;DHT22;52842;52.666;5.202;2023-03-12T08:51:24;18.50;51.70
66057;DHT22;52842;52.666;5.202;2023-03-12T08:53:51;18.70;51.20
66057;DHT22;52842;52.666;5.202;2023-03-12T08:56:17;18.90;50.70
66057;DHT22;52842;52.666;5.202;2023-03-12T08:58:44;19.00;50.40
66057;DHT22;52842;52.666;5.202;2023-03-12T09:01:12;19.10;50.00
66057;DHT22;52842;52.666;5.202;2023-03-12T09:03:39;19.30;49.90
66057;DHT22;52842;52.666;5.202;2023-03-12T09:06:07;19.40;49.50
66057;DHT22;52842;52.666;5.202;2023-03-12T09:08:37;19.50;49.30
66057;DHT22;52842;52.666;5.202;2023-03-12T09:11:04;19.60;49.20
66057;DHT22;52842;52.666;5.202;2023-03-12T09:13:31;19.70;48.90
66057;DHT22;52842;52.666;5.202;2023-03-12T09:15:58;19.80;48.80
66057;DHT22;52842;52.666;5.202;2023-03-12T09:18:26;19.80;48.60
66057;DHT22;52842;52.666;5.202;2023-03-12T09:20:53;19.90;48.50
66057;DHT22;52842;52.666;5.202;2023-03-12T09:23:20;19.90;48.40
66057;DHT22;52842;52.666;5.202;2023-03-12T09:25:47;19.70;48.50
66057;DHT22;52842;52.666;5.202;2023-03-12T09:28:13;19.70;48.70
66057;DHT22;52842;52.666;5.202;2023-03-12T09:30:40;19.50;48.80
66057;DHT22;52842;52.666;5.202;2023-03-12T09:33:07;19.50;49.00
66057;DHT22;52842;52.666;5.202;2023-03-12T09:35:35;19.40;49.10
66057;DHT22;52842;52.666;5.202;2023-03-12T09:38:02;19.40;49.20
66057;DHT22;52842;52.666;5.202;2023-03-12T09:40:30;19.40;49.00
66057;DHT22;52842;52.666;5.202;2023-03-12T09:42:58;19.50;48.90
66057;DHT22;52842;52.666;5.202;2023-03-12T09:45:26;19.50;48.90
66057;DHT22;52842;52.666;5.202;2023-03-12T09:47:53;19.40;48.60
66057;DHT22;52842;52.666;5.202;2023-03-12T09:50:24;19.10;48.90
66057;DHT22;52842;52.666;5.202;2023-03-12T09:52:55;18.80;49.30
66057;DHT22;52842;52.666;5.202;2023-03-12T09:55:23;18.50;49.90
66057;DHT22;52842;52.666;5.202;2023-03-12T09:57:51;18.20;50.50
66057;DHT22;52842;52.666;5.202;2023-03-12T10:00:18;18.00;51.00
66057;DHT22;52842;52.666;5.202;2023-03-12T10:02:53;17.80;51.40
66057;DHT22;52842;52.666;5.202;2023-03-12T10:05:25;17.90;52.00
66057;DHT22;52842;52.666;5.202;2023-03-12T10:07:59;18.10;51.90
66057;DHT22;52842;52.666;5.202;2023-03-12T10:10:34;18.30;51.40
66057;DHT22;52842;52.666;5.202;2023-03-12T10:13:12;18.60;50.90
66057;DHT22;52842;52.666;5.202;2023-03-12T10:15:43;18.80;50.40
66057;DHT22;52842;52.666;5.202;2023-03-12T10:18:15;19.00;49.90
66057;DHT22;52842;52.666;5.202;2023-03-12T10:20:49;19.10;49.50
66057;DHT22;52842;52.666;5.202;2023-03-12T10:23:21;19.30;49.20
66057;DHT22;52842;52.666;5.202;2023-03-12T10:25:53;19.40;48.80
66057;DHT22;52842;52.666;5.202;2023-03-12T10:28:22;19.50;48.40
66057;DHT22;52842;52.666;5.202;2023-03-12T10:30:52;19.50;48.20
66057;DHT22;52842;52.666;5.202;2023-03-12T10:33:20;19.40;48.20
66057;DHT22;52842;52.666;5.202;2023-03-12T10:35:48;19.20;48.50
66057;DHT22;52842;52.666;5.202;2023-03-12T10:38:16;18.90;49.10
66057;DHT22;52842;52.666;5.202;2023-03-12T10:40:44;18.60;49.90
66057;DHT22;52842;52.666;5.202;2023-03-12T10:43:11;18.30;50.80
66057;DHT22;52842;52.666;5.202;2023-03-12T10:45:38;18.10;51.50
66057;DHT22;52842;52.666;5.202;2023-03-12T10:48:06;17.90;52.20
66057;DHT22;52842;52.666;5.202;2023-03-12T10:50:33;18.10;52.70
66057;DHT22;52842;52.666;5.202;2023-03-12T10:53:20;18.30;52.60
66057;DHT22;52842;52.666;5.202;2023-03-12T10:55:59;18.60;52.30
66057;DHT22;52842;52.666;5.202;2023-03-12T10:58:30;18.70;52.00
66057;DHT22;52842;52.666;5.202;2023-03-12T11:00:58;18.90;51.70
66057;DHT22;52842;52.666;5.202;2023-03-12T11:03:25;19.00;51.30
66057;DHT22;52842;52.666;5.202;2023-03-12T11:05:52;19.10;51.10
66057;DHT22;52842;52.666;5.202;2023-03-12T11:08:20;19.00;50.90
66057;DHT22;52842;52.666;5.202;2023-03-12T11:10:47;18.80;51.00
66057;DHT22;52842;52.666;5.202;2023-03-12T11:13:23;18.60;51.40
66057;DHT22;52842;52.666;5.202;2023-03-12T11:15:50;18.30;51.90
66057;DHT22;52842;52.666;5.202;2023-03-12T11:18:25;18.10;52.30
66057;DHT22;52842;52.666;5.202;2023-03-12T11:20:52;17.90;52.80
66057;DHT22;52842;52.666;5.202;2023-03-12T11:23:22;17.80;53.10
66057;DHT22;52842;52.666;5.202;2023-03-12T11:25:50;17.60;53.50
66057;DHT22;52842;52.666;5.202;2023-03-12T11:28:20;17.50;53.70
66057;DHT22;52842;52.666;5.202;2023-03-12T11:30:49;17.40;54.10
66057;DHT22;52842;52.666;5.202;2023-03-12T11:33:17;17.30;54.20
66057;DHT22;52842;52.666;5.202;2023-03-12T11:35:45;17.20;54.40
66057;DHT22;52842;52.666;5.202;2023-03-12T11:38:16;17.20;54.70
66057;DHT22;52842;52.666;5.202;2023-03-12T11:40:51;17.10;54.90
66057;DHT22;52842;52.666;5.202;2023-03-12T11:43:31;17.10;55.60
66057;DHT22;52842;52.666;5.202;2023-03-12T11:46:06;17.00;55.20
66057;DHT22;52842;52.666;5.202;2023-03-12T11:48:36;17.00;55.30
66057;DHT22;52842;52.666;5.202;2023-03-12T11:51:10;16.90;55.50
66057;DHT22;52842;52.666;5.202;2023-03-12T11:53:45;16.90;55.60
66057;DHT22;52842;52.666;5.202;2023-03-12T11:56:16;16.90;55.80
66057;DHT22;52842;52.666;5.202;2023-03-12T11:58:49;16.80;55.90
66057;DHT22;52842;52.666;5.202;2023-03-12T12:01:22;16.80;56.20
66057;DHT22;52842;52.666;5.202;2023-03-12T12:06:36;17.40;56.10
66057;DHT22;52842;52.666;5.202;2023-03-12T12:09:08;17.60;55.50
66057;DHT22;52842;52.666;5.202;2023-03-12T12:11:39;17.90;55.00
66057;DHT22;52842;52.666;5.202;2023-03-12T12:14:12;18.10;54.60
66057;DHT22;52842;52.666;5.202;2023-03-12T12:16:45;18.30;54.10
66057;DHT22;52842;52.666;5.202;2023-03-12T12:19:19;18.40;53.80
66057;DHT22;52842;52.666;5.202;2023-03-12T12:21:51;18.50;53.50
66057;DHT22;52842;52.666;5.202;2023-03-12T12:24:29;18.50;53.30
66057;DHT22;52842;52.666;5.202;2023-03-12T12:27:00;18.40;53.10
66057;DHT22;52842;52.666;5.202;2023-03-12T12:29:31;18.20;53.20
66057;DHT22;52842;52.666;5.202;2023-03-12T12:32:01;18.10;53.60
66057;DHT22;52842;52.666;5.202;2023-03-12T12:37:29;17.70;54.60
66057;DHT22;52842;52.666;5.202;2023-03-12T12:39:58;17.60;55.10
66057;DHT22;52842;52.666;5.202;2023-03-12T12:42:29;17.60;55.50
66057;DHT22;52842;52.666;5.202;2023-03-12T12:44:57;17.80;55.50
66057;DHT22;52842;52.666;5.202;2023-03-12T12:47:31;18.00;55.20
66057;DHT22;52842;52.666;5.202;2023-03-12T12:49:59;18.20;54.80
66057;DHT22;52842;52.666;5.202;2023-03-12T12:52:26;18.30;53.80
66057;DHT22;52842;52.666;5.202;2023-03-12T12:54:54;18.40;53.80
66057;DHT22;52842;52.666;5.202;2023-03-12T12:57:25;18.40;53.60
66057;DHT22;52842;52.666;5.202;2023-03-12T12:59:57;18.40;53.50
66057;DHT22;52842;52.666;5.202;2023-03-12T13:02:27;18.40;53.60
66057;DHT22;52842;52.666;5.202;2023-03-12T13:04:56;18.30;53.70
66057;DHT22;52842;52.666;5.202;2023-03-12T13:07:31;18.30;53.90
66057;DHT22;52842;52.666;5.202;2023-03-12T13:09:58;18.20;54.10
66057;DHT22;52842;52.666;5.202;2023-03-12T13:12:26;18.20;54.20
66057;DHT22;52842;52.666;5.202;2023-03-12T13:14:55;18.10;54.50
66057;DHT22;52842;52.666;5.202;2023-03-12T13:17:24;18.10;54.70
66057;DHT22;52842;52.666;5.202;2023-03-12T13:19:52;18.00;54.90
66057;DHT22;52842;52.666;5.202;2023-03-12T13:22:25;17.90;55.20
66057;DHT22;52842;52.666;5.202;2023-03-12T13:24:55;17.80;55.80
66057;DHT22;52842;52.666;5.202;2023-03-12T13:27:23;17.80;56.50
66057;DHT22;52842;52.666;5.202;2023-03-12T13:29:50;17.70;57.60
66057;DHT22;52842;52.666;5.202;2023-03-12T13:35:26;17.60;57.80
66057;DHT22;52842;52.666;5.202;2023-03-12T13:38:02;17.60;58.10
66057;DHT22;52842;52.666;5.202;2023-03-12T13:40:34;17.60;58.50
66057;DHT22;52842;52.666;5.202;2023-03-12T13:43:01;17.60;58.70
66057;DHT22;52842;52.666;5.202;2023-03-12T13:45:28;17.60;58.90
66057;DHT22;52842;52.666;5.202;2023-03-12T13:47:57;17.60;59.10
66057;DHT22;52842;52.666;5.202;2023-03-12T13:50:24;17.60;59.40
66057;DHT22;52842;52.666;5.202;2023-03-12T13:52:56;17.70;59.70
66057;DHT22;52842;52.666;5.202;2023-03-12T13:55:27;17.70;59.90
66057;DHT22;52842;52.666;5.202;2023-03-12T13:57:55;17.70;60.10
66057;DHT22;52842;52.666;5.202;2023-03-12T14:00:24;17.80;60.30
66057;DHT22;52842;52.666;5.202;2023-03-12T14:02:52;17.80;60.50
66057;DHT22;52842;52.666;5.202;2023-03-12T14:05:20;17.80;60.50
66057;DHT22;52842;52.666;5.202;2023-03-12T14:07:59;17.90;60.60
66057;DHT22;52842;52.666;5.202;2023-03-12T14:10:30;17.90;60.70
66057;DHT22;52842;52.666;5.202;2023-03-12T14:13:01;17.90;60.70
66057;DHT22;52842;52.666;5.202;2023-03-12T14:15:32;17.90;60.70
66057;DHT22;52842;52.666;5.202;2023-03-12T14:18:03;17.90;60.70
66057;DHT22;52842;52.666;5.202;2023-03-12T14:20:36;18.00;60.80
66057;DHT22;52842;52.666;5.202;2023-03-12T14:23:04;18.00;60.80
66057;DHT22;52842;52.666;5.202;2023-03-12T14:25:34;18.10;60.90
66057;DHT22;52842;52.666;5.202;2023-03-12T14:28:02;18.10;60.90
66057;DHT22;52842;52.666;5.202;2023-03-12T14:30:32;18.10;61.00
66057;DHT22;52842;52.666;5.202;2023-03-12T14:33:02;18.10;61.10
66057;DHT22;52842;52.666;5.202;2023-03-12T14:35:32;18.20;61.20
66057;DHT22;52842;52.666;5.202;2023-03-12T14:37:59;18.20;61.10
66057;DHT22;52842;52.666;5.202;2023-03-12T14:40:32;18.30;61.20
66057;DHT22;52842;52.666;5.202;2023-03-12T14:43:17;18.30;61.10
66057;DHT22;52842;52.666;5.202;2023-03-12T14:45:44;18.30;61.10
66057;DHT22;52842;52.666;5.202;2023-03-12T14:48:10;18.30;61.10
66057;DHT22;52842;52.666;5.202;2023-03-12T14:50:38;18.40;61.10
66057;DHT22;52842;52.666;5.202;2023-03-12T14:53:10;18.40;61.00
66057;DHT22;52842;52.666;5.202;2023-03-12T14:55:37;18.40;60.90
66057;DHT22;52842;52.666;5.202;2023-03-12T14:58:06;18.40;60.70
66057;DHT22;52842;52.666;5.202;2023-03-12T15:00:39;18.50;60.70
66057;DHT22;52842;52.666;5.202;2023-03-12T15:03:09;18.50;60.50
66057;DHT22;52842;52.666;5.202;2023-03-12T15:05:36;18.50;60.40
66057;DHT22;52842;52.666;5.202;2023-03-12T15:08:03;18.50;60.30
66057;DHT22;52842;52.666;5.202;2023-03-12T15:10:30;18.50;60.30
66057;DHT22;52842;52.666;5.202;2023-03-12T15:12:58;18.60;60.20
66057;DHT22;52842;52.666;5.202;2023-03-12T15:15:28;18.60;60.20
66057;DHT22;52842;52.666;5.202;2023-03-12T15:17:56;18.60;60.20
66057;DHT22;52842;52.666;5.202;2023-03-12T15:20:24;18.60;60.30
66057;DHT22;52842;52.666;5.202;2023-03-12T15:22:51;18.70;60.40
66057;DHT22;52842;52.666;5.202;2023-03-12T15:25:21;18.70;60.50
66057;DHT22;52842;52.666;5.202;2023-03-12T15:27:48;18.70;60.50
66057;DHT22;52842;52.666;5.202;2023-03-12T15:30:25;18.80;60.60
66057;DHT22;52842;52.666;5.202;2023-03-12T15:33:04;18.80;60.50
66057;DHT22;52842;52.666;5.202;2023-03-12T15:35:31;18.90;60.50
66057;DHT22;52842;52.666;5.202;2023-03-12T15:37:58;18.90;60.30
66057;DHT22;52842;52.666;5.202;2023-03-12T15:40:25;19.00;60.30
66057;DHT22;52842;52.666;5.202;2023-03-12T15:42:52;19.00;60.30
66057;DHT22;52842;52.666;5.202;2023-03-12T15:45:22;19.00;60.20